createdAt,value
2023-03-07T00:00:27.044Z,23.25
2023-03-07T00:01:24.895Z,22.50
2023-03-07T00:02:12.031Z,22.98
2023-03-07T00:02:59.090Z,24.00
2023-03-07T00:03:46.138Z,24.05
2023-03-07T00:04:33.090Z,23.62
2023-03-07T00:05:20.204Z,23.08
2023-03-07T00:06:11.328Z,22.75
2023-03-07T00:06:58.410Z,22.75
2023-03-07T00:07:45.377Z,23.05
2023-03-07T00:08:32.715Z,23.08
2023-03-07T00:09:19.723Z,24.95
2023-03-07T00:10:07.386Z,24.27
2023-03-07T00:10:54.442Z,23.08
2023-03-07T00:11:41.392Z,23.00
2023-03-07T00:12:28.393Z,23.38
2023-03-07T00:13:15.429Z,24.00
2023-03-07T00:14:02.447Z,24.33
2023-03-07T00:14:49.412Z,23.77
2023-03-07T00:15:38.491Z,23.38
2023-03-07T00:16:26.175Z,24.37
2023-03-07T00:17:13.267Z,24.12
2023-03-07T00:18:00.306Z,22.67
2023-03-07T00:18:47.522Z,23.60
2023-03-07T00:19:34.618Z,24.15
2023-03-07T00:20:21.622Z,24.20
2023-03-07T00:21:11.035Z,25.67
2023-03-07T00:21:58.160Z,24.77
2023-03-07T00:22:47.120Z,22.50
2023-03-07T00:23:36.353Z,25.52
2023-03-07T00:24:23.339Z,25.05
2023-03-07T00:25:11.172Z,24.87
2023-03-07T00:26:03.448Z,24.17
2023-03-07T00:26:50.518Z,24.65
2023-03-07T00:27:37.577Z,24.83
2023-03-07T00:28:24.698Z,26.30
2023-03-07T00:29:11.878Z,25.25
2023-03-07T00:29:59.165Z,25.77
2023-03-07T00:30:46.202Z,22.05
2023-03-07T00:31:33.406Z,22.62
2023-03-07T00:32:20.313Z,23.67
2023-03-07T00:33:07.354Z,23.75
2023-03-07T00:33:54.452Z,23.27
2023-03-07T00:34:41.536Z,24.73
2023-03-07T00:35:28.703Z,24.05
2023-03-07T00:36:21.091Z,24.42
2023-03-07T00:37:08.228Z,23.80
2023-03-07T00:37:55.188Z,24.00
2023-03-07T00:38:42.624Z,23.45
2023-03-07T00:39:29.655Z,22.58
2023-03-07T00:40:16.869Z,23.45
2023-03-07T00:41:15.490Z,23.50
2023-03-07T00:42:02.619Z,23.75
2023-03-07T00:42:49.742Z,22.60
2023-03-07T00:43:37.469Z,23.42
2023-03-07T00:44:25.889Z,23.00
2023-03-07T00:45:13.952Z,23.55
2023-03-07T00:46:01.707Z,23.85
2023-03-07T00:46:48.763Z,22.05
2023-03-07T00:47:35.845Z,22.83
2023-03-07T00:48:23.511Z,23.98
2023-03-07T00:49:10.638Z,21.77
2023-03-07T00:49:57.639Z,22.90
2023-03-07T00:50:45.325Z,22.45
2023-03-07T00:51:32.314Z,23.45
2023-03-07T00:52:19.334Z,24.17
2023-03-07T00:53:06.372Z,24.40
2023-03-07T00:53:53.345Z,24.12
2023-03-07T00:54:40.401Z,24.70
2023-03-07T00:55:27.420Z,23.87
2023-03-07T00:56:23.377Z,24.25
2023-03-07T00:57:10.491Z,23.48
2023-03-07T00:57:57.564Z,23.12
2023-03-07T00:58:45.480Z,23.55
2023-03-07T00:59:32.698Z,23.27
2023-03-07T01:00:19.866Z,24.85
2023-03-07T01:01:08.110Z,23.55
2023-03-07T01:01:55.164Z,23.60
2023-03-07T01:02:42.269Z,24.12
2023-03-07T01:03:29.804Z,23.52
2023-03-07T01:04:16.891Z,23.10
2023-03-07T01:05:04.856Z,24.25
2023-03-07T01:05:52.642Z,23.20
2023-03-07T01:06:39.707Z,23.77
2023-03-07T01:07:26.689Z,24.85
2023-03-07T01:08:14.068Z,23.25
2023-03-07T01:09:04.512Z,24.00
2023-03-07T01:09:53.425Z,23.77
2023-03-07T01:10:40.506Z,23.90
2023-03-07T01:11:29.068Z,23.45
2023-03-07T01:12:16.060Z,24.73
2023-03-07T01:13:03.184Z,23.35
2023-03-07T01:13:50.179Z,23.83
2023-03-07T01:14:37.169Z,24.85
2023-03-07T01:15:24.312Z,22.92
2023-03-07T01:16:14.668Z,22.60
2023-03-07T01:17:01.901Z,23.87
2023-03-07T01:17:48.915Z,23.30
2023-03-07T01:18:35.969Z,22.42
2023-03-07T01:19:23.932Z,22.52
2023-03-07T01:20:13.790Z,24.00
2023-03-07T01:21:00.734Z,21.77
2023-03-07T01:21:47.758Z,23.73
2023-03-07T01:22:34.725Z,23.70
2023-03-07T01:23:21.789Z,23.70
2023-03-07T01:24:13.589Z,22.40
2023-03-07T01:25:00.545Z,23.95
2023-03-07T01:25:47.588Z,22.98
2023-03-07T01:26:35.282Z,23.45
2023-03-07T01:27:22.297Z,23.62
2023-03-07T01:28:11.387Z,23.70
2023-03-07T01:29:01.031Z,23.27
2023-03-07T01:29:48.014Z,22.35
2023-03-07T01:30:35.141Z,22.05
2023-03-07T01:31:22.865Z,22.77
2023-03-07T01:32:10.053Z,23.33
2023-03-07T01:32:58.386Z,23.85
2023-03-07T01:33:48.072Z,22.58
2023-03-07T01:34:35.161Z,21.65
2023-03-07T01:35:22.450Z,22.48
2023-03-07T01:36:30.378Z,22.37
2023-03-07T01:37:19.108Z,21.90
2023-03-07T01:38:06.629Z,22.77
2023-03-07T01:38:58.562Z,22.17
2023-03-07T01:39:45.677Z,21.65
2023-03-07T01:40:32.817Z,21.12
2023-03-07T01:41:19.840Z,21.60
2023-03-07T01:42:07.778Z,21.70
2023-03-07T01:42:54.802Z,22.08
2023-03-07T01:43:41.890Z,21.05
2023-03-07T01:44:29.223Z,22.30
2023-03-07T01:45:16.262Z,22.85
2023-03-07T01:46:03.257Z,22.10
2023-03-07T01:46:53.021Z,21.90
2023-03-07T01:47:46.389Z,21.83
2023-03-07T01:48:33.401Z,23.02
2023-03-07T01:49:26.224Z,20.75
2023-03-07T01:50:17.036Z,21.20
2023-03-07T01:51:04.133Z,21.10
2023-03-07T01:52:15.729Z,23.05
2023-03-07T01:53:02.849Z,20.88
2023-03-07T01:53:51.565Z,21.65
2023-03-07T01:54:41.152Z,22.13
2023-03-07T01:55:31.325Z,22.08
2023-03-07T01:56:18.648Z,20.23
2023-03-07T01:57:06.124Z,22.62
2023-03-07T01:57:54.895Z,22.15
2023-03-07T01:58:42.255Z,22.37
2023-03-07T01:59:33.173Z,21.30
2023-03-07T02:00:31.492Z,22.27
2023-03-07T02:01:18.878Z,21.33
2023-03-07T02:02:12.156Z,21.58
2023-03-07T02:03:13.343Z,22.20
2023-03-07T02:04:02.750Z,21.92
2023-03-07T02:05:04.479Z,21.55
2023-03-07T02:05:54.457Z,20.55
2023-03-07T02:06:41.535Z,22.13
2023-03-07T02:07:33.836Z,21.48
2023-03-07T02:08:22.932Z,19.67
2023-03-07T02:09:15.931Z,20.12
2023-03-07T02:10:04.293Z,21.35
2023-03-07T02:10:51.381Z,21.17
2023-03-07T02:11:40.905Z,22.17
2023-03-07T02:12:28.120Z,22.48
2023-03-07T02:13:15.277Z,22.83
2023-03-07T02:14:02.254Z,22.58
2023-03-07T02:14:49.544Z,21.55
2023-03-07T02:15:37.280Z,22.17
2023-03-07T02:16:24.365Z,22.65
2023-03-07T02:17:11.464Z,22.73
2023-03-07T02:18:01.734Z,21.77
2023-03-07T02:18:50.308Z,22.87
2023-03-07T02:19:59.111Z,21.33
2023-03-07T02:20:49.802Z,20.23
2023-03-07T02:21:49.806Z,21.17
2023-03-07T02:22:37.001Z,22.30
2023-03-07T02:23:38.766Z,21.80
2023-03-07T02:24:53.840Z,21.92
2023-03-07T02:26:01.756Z,20.48
2023-03-07T02:26:50.404Z,20.45
2023-03-07T02:27:37.916Z,22.00
2023-03-07T02:28:25.162Z,21.55
2023-03-07T02:29:12.846Z,21.95
2023-03-07T02:29:59.819Z,22.33
2023-03-07T02:31:02.452Z,21.90
2023-03-07T02:31:49.573Z,21.20
2023-03-07T02:32:36.585Z,22.25
2023-03-07T02:33:25.316Z,22.98
2023-03-07T02:34:29.189Z,21.62
2023-03-07T02:35:26.796Z,21.92
2023-03-07T02:36:17.606Z,20.90
2023-03-07T02:37:13.942Z,20.73
2023-03-07T02:38:03.613Z,20.55
2023-03-07T02:38:52.172Z,16.08
2023-03-07T02:39:40.464Z,20.17
2023-03-07T02:40:30.325Z,19.42
2023-03-07T02:41:21.520Z,20.77
2023-03-07T02:42:12.078Z,19.85
2023-03-07T02:43:01.064Z,20.83
2023-03-07T02:43:48.058Z,21.55
2023-03-07T02:44:35.162Z,19.73
2023-03-07T02:45:22.246Z,21.02
2023-03-07T02:46:09.360Z,20.23
2023-03-07T02:46:56.463Z,20.58
2023-03-07T02:47:44.163Z,20.35
2023-03-07T02:48:31.579Z,19.98
2023-03-07T02:49:18.549Z,21.42
2023-03-07T02:50:06.151Z,21.05
2023-03-07T02:50:53.110Z,21.23
2023-03-07T02:51:40.309Z,20.67
2023-03-07T02:52:28.946Z,19.73
2023-03-07T02:53:16.234Z,21.15
2023-03-07T02:54:03.294Z,19.50
2023-03-07T02:54:50.356Z,20.70
2023-03-07T02:55:37.405Z,20.92
2023-03-07T02:56:24.384Z,20.33
2023-03-07T02:57:11.434Z,19.62
2023-03-07T02:57:58.477Z,19.75
2023-03-07T02:58:45.453Z,20.62
2023-03-07T02:59:32.457Z,20.00
2023-03-07T03:00:20.266Z,20.77
2023-03-07T03:01:07.510Z,20.80
2023-03-07T03:01:54.549Z,20.85
2023-03-07T03:02:41.599Z,21.70
2023-03-07T03:03:28.579Z,20.05
2023-03-07T03:04:15.747Z,19.52
2023-03-07T03:05:02.929Z,19.87
2023-03-07T03:05:50.002Z,19.55
2023-03-07T03:06:37.014Z,20.35
2023-03-07T03:07:23.973Z,20.05
2023-03-07T03:08:11.117Z,21.45
2023-03-07T03:08:58.111Z,20.55
2023-03-07T03:09:45.089Z,19.83
2023-03-07T03:10:32.216Z,21.67
2023-03-07T03:11:19.252Z,20.20
2023-03-07T03:13:13.571Z,19.42
2023-03-07T03:14:00.579Z,21.05
2023-03-07T03:14:47.519Z,21.33
2023-03-07T03:15:34.788Z,20.92
2023-03-07T03:16:21.875Z,21.62
2023-03-07T03:17:08.901Z,21.15
2023-03-07T03:17:55.958Z,19.77
2023-03-07T03:18:42.992Z,20.40
2023-03-07T03:19:30.292Z,20.80
2023-03-07T03:20:17.410Z,20.55
2023-03-07T03:21:11.337Z,20.40
2023-03-07T03:21:58.778Z,20.23
2023-03-07T03:22:45.780Z,21.15
2023-03-07T03:23:32.903Z,20.08
2023-03-07T03:24:19.830Z,19.75
2023-03-07T03:25:10.146Z,20.73
2023-03-07T03:26:01.920Z,20.62
2023-03-07T03:26:48.982Z,20.15
2023-03-07T03:27:37.080Z,19.48
2023-03-07T03:28:24.071Z,20.35
2023-03-07T03:29:11.108Z,19.67
2023-03-07T03:29:58.096Z,20.52
2023-03-07T03:30:45.185Z,19.10
2023-03-07T03:31:33.518Z,19.77
2023-03-07T03:32:20.783Z,19.95
2023-03-07T03:33:07.856Z,21.25
2023-03-07T03:33:54.920Z,21.00
2023-03-07T03:34:41.932Z,20.77
2023-03-07T03:35:29.016Z,20.50
2023-03-07T03:36:17.489Z,19.65
2023-03-07T03:37:04.385Z,21.87
2023-03-07T03:37:51.483Z,19.77
2023-03-07T03:38:39.414Z,20.80
2023-03-07T03:39:26.552Z,20.98
2023-03-07T03:40:17.691Z,20.23
2023-03-07T03:41:06.260Z,20.80
2023-03-07T03:41:53.185Z,19.10
2023-03-07T03:42:42.066Z,20.62
2023-03-07T03:43:29.084Z,19.80
2023-03-07T03:44:16.102Z,19.67
2023-03-07T03:45:03.234Z,20.77
2023-03-07T03:45:56.985Z,20.75
2023-03-07T03:46:44.080Z,21.02
2023-03-07T03:47:31.245Z,21.05
2023-03-07T03:48:18.268Z,22.37
2023-03-07T03:49:05.456Z,22.35
2023-03-07T03:49:52.409Z,21.62
2023-03-07T03:50:39.628Z,20.02
2023-03-07T03:51:27.203Z,21.48
2023-03-07T03:52:14.227Z,20.27
2023-03-07T03:53:01.990Z,20.90
2023-03-07T03:53:48.967Z,21.05
2023-03-07T03:54:36.275Z,22.23
2023-03-07T03:55:24.419Z,20.67
2023-03-07T03:56:16.395Z,21.15
2023-03-07T03:57:03.425Z,20.05
2023-03-07T03:57:50.388Z,20.77
2023-03-07T03:58:38.215Z,20.70
2023-03-07T03:59:25.381Z,20.50
2023-03-07T04:00:15.106Z,21.37
2023-03-07T04:01:07.988Z,20.55
2023-03-07T04:01:55.563Z,21.77
2023-03-07T04:02:42.757Z,19.62
2023-03-07T04:03:29.956Z,21.58
2023-03-07T04:04:16.925Z,21.27
2023-03-07T04:05:05.526Z,21.12
2023-03-07T04:05:52.706Z,21.73
2023-03-07T04:06:39.821Z,19.58
2023-03-07T04:07:29.380Z,21.85
2023-03-07T04:08:16.376Z,21.60
2023-03-07T04:09:05.112Z,21.55
2023-03-07T04:09:52.095Z,20.70
2023-03-07T04:10:39.217Z,21.35
2023-03-07T04:11:26.844Z,20.37
2023-03-07T04:12:13.837Z,21.37
2023-03-07T04:13:01.107Z,21.12
2023-03-07T04:13:48.330Z,20.17
2023-03-07T04:14:35.368Z,20.58
2023-03-07T04:15:22.362Z,20.70
2023-03-07T04:16:09.702Z,20.95
2023-03-07T04:16:56.655Z,20.88
2023-03-07T04:17:43.668Z,20.10
2023-03-07T04:18:30.681Z,20.37
2023-03-07T04:19:18.413Z,21.48
2023-03-07T04:20:06.196Z,21.15
2023-03-07T04:20:53.326Z,19.92
2023-03-07T04:21:41.020Z,20.50
2023-03-07T04:22:28.058Z,20.75
2023-03-07T04:23:15.128Z,20.85
2023-03-07T04:24:02.207Z,19.65
2023-03-07T04:24:49.228Z,20.60
2023-03-07T04:25:37.147Z,20.60
2023-03-07T04:26:24.516Z,21.05
2023-03-07T04:27:12.211Z,21.25
2023-03-07T04:27:59.221Z,20.90
2023-03-07T04:28:46.352Z,21.55
2023-03-07T04:29:33.821Z,20.90
2023-03-07T04:30:21.055Z,21.50
2023-03-07T04:31:08.093Z,21.17
2023-03-07T04:31:55.158Z,21.77
2023-03-07T04:32:43.853Z,20.27
2023-03-07T04:33:30.887Z,20.70
2023-03-07T04:34:17.986Z,21.25
2023-03-07T04:35:05.242Z,21.37
2023-03-07T04:35:52.311Z,21.17
2023-03-07T04:36:39.341Z,20.70
2023-03-07T04:37:26.241Z,21.50
2023-03-07T04:38:14.562Z,22.60
2023-03-07T04:39:01.634Z,20.35
2023-03-07T04:39:48.688Z,21.08
2023-03-07T04:40:36.262Z,20.12
2023-03-07T04:41:26.429Z,21.15
2023-03-07T04:42:13.559Z,22.95
2023-03-07T04:43:00.658Z,20.98
2023-03-07T04:43:47.746Z,21.58
2023-03-07T04:44:34.968Z,20.05
2023-03-07T04:45:22.073Z,21.25
2023-03-07T04:46:09.425Z,22.02
2023-03-07T04:46:56.561Z,20.83
2023-03-07T04:47:43.528Z,21.30
2023-03-07T04:48:30.569Z,21.45
2023-03-07T04:49:17.548Z,20.30
2023-03-07T04:50:04.839Z,21.23
2023-03-07T04:50:52.573Z,21.20
2023-03-07T04:51:39.527Z,22.20
2023-03-07T04:52:26.591Z,21.27
2023-03-07T04:53:13.605Z,21.02
2023-03-07T04:54:00.733Z,20.55
2023-03-07T04:54:47.763Z,21.87
2023-03-07T04:55:34.724Z,21.15
2023-03-07T04:56:21.936Z,20.50
2023-03-07T04:57:09.189Z,21.20
2023-03-07T04:57:57.915Z,20.83
2023-03-07T04:58:45.299Z,21.60
2023-03-07T04:59:32.391Z,21.35
2023-03-07T05:00:20.416Z,20.27
2023-03-07T05:01:07.542Z,21.30
2023-03-07T05:01:54.546Z,19.98
2023-03-07T05:02:41.576Z,20.27
2023-03-07T05:03:29.290Z,21.10
2023-03-07T05:04:16.409Z,20.80
2023-03-07T05:05:04.747Z,21.30
2023-03-07T05:05:51.846Z,21.45
2023-03-07T05:06:38.909Z,20.67
2023-03-07T05:07:25.969Z,21.23
2023-03-07T05:08:13.043Z,21.33
2023-03-07T05:08:59.988Z,21.98
2023-03-07T05:09:47.226Z,22.35
2023-03-07T05:10:35.126Z,23.00
2023-03-07T05:11:22.153Z,21.62
2023-03-07T05:12:09.405Z,21.98
2023-03-07T05:12:56.452Z,23.80
2023-03-07T05:13:43.321Z,21.48
2023-03-07T05:14:30.357Z,22.10
2023-03-07T05:15:17.496Z,22.05
2023-03-07T05:16:04.894Z,20.77
2023-03-07T05:16:51.875Z,20.42
2023-03-07T05:17:38.881Z,22.48
2023-03-07T05:18:26.730Z,20.73
2023-03-07T05:19:13.711Z,21.48
2023-03-07T05:20:00.803Z,22.15
2023-03-07T05:20:47.790Z,21.30
2023-03-07T05:21:34.932Z,21.35
2023-03-07T05:22:21.903Z,20.30
2023-03-07T05:23:09.011Z,22.37
2023-03-07T05:23:56.024Z,20.08
2023-03-07T05:24:43.015Z,21.75
2023-03-07T05:25:30.130Z,19.20
2023-03-07T05:26:17.090Z,20.15
2023-03-07T05:27:04.121Z,21.50
2023-03-07T05:27:51.108Z,20.80
2023-03-07T05:28:38.253Z,22.15
2023-03-07T05:29:25.321Z,21.67
2023-03-07T05:30:13.026Z,20.02
2023-03-07T05:31:00.243Z,21.17
2023-03-07T05:31:47.503Z,20.75
2023-03-07T05:32:36.332Z,21.17
2023-03-07T05:33:23.534Z,20.55
2023-03-07T05:34:11.043Z,19.95
2023-03-07T05:34:58.001Z,20.80
2023-03-07T05:35:45.275Z,21.15
2023-03-07T05:36:32.431Z,21.23
2023-03-07T05:37:19.526Z,20.62
2023-03-07T05:38:07.107Z,20.95
2023-03-07T05:38:56.577Z,20.95
2023-03-07T05:39:43.696Z,20.83
2023-03-07T05:40:30.750Z,20.58
2023-03-07T05:41:18.136Z,22.17
2023-03-07T05:42:05.344Z,21.60
2023-03-07T05:42:52.327Z,22.00
2023-03-07T05:43:39.368Z,21.00
2023-03-07T05:44:26.725Z,21.17
2023-03-07T05:45:13.927Z,20.10
2023-03-07T05:46:01.049Z,19.42
2023-03-07T05:46:48.118Z,20.75
2023-03-07T05:47:35.283Z,20.70
2023-03-07T05:48:22.256Z,19.52
2023-03-07T05:49:09.337Z,20.40
2023-03-07T05:49:56.371Z,20.25
2023-03-07T05:50:44.020Z,21.25
2023-03-07T05:51:31.222Z,21.30
2023-03-07T05:52:18.301Z,20.65
2023-03-07T05:53:05.442Z,20.48
2023-03-07T05:53:52.459Z,20.12
2023-03-07T05:54:39.506Z,20.30
2023-03-07T05:55:26.611Z,21.37
2023-03-07T05:56:14.245Z,21.30
2023-03-07T05:57:01.164Z,20.45
2023-03-07T05:57:48.222Z,20.60
2023-03-07T05:58:35.364Z,20.52
2023-03-07T05:59:22.426Z,20.90
2023-03-07T06:00:11.611Z,19.92
2023-03-07T06:00:58.896Z,21.42
2023-03-07T06:01:46.016Z,20.02
2023-03-07T06:02:33.125Z,22.37
2023-03-07T06:03:20.336Z,20.05
2023-03-07T06:04:07.461Z,19.45
2023-03-07T06:04:54.508Z,21.98
2023-03-07T06:05:41.592Z,21.37
2023-03-07T06:06:28.800Z,22.50
2023-03-07T06:07:15.992Z,22.30
2023-03-07T06:08:05.362Z,19.80
2023-03-07T06:08:52.328Z,20.88
2023-03-07T06:09:39.499Z,19.77
2023-03-07T06:10:26.727Z,20.12
2023-03-07T06:11:13.866Z,19.60
2023-03-07T06:12:01.100Z,20.98
2023-03-07T06:12:55.214Z,21.00
2023-03-07T06:13:42.753Z,19.95
2023-03-07T06:14:31.900Z,20.65
2023-03-07T06:15:19.428Z,20.45
2023-03-07T06:16:06.630Z,20.92
2023-03-07T06:16:53.644Z,21.30
2023-03-07T06:17:40.860Z,20.70
2023-03-07T06:18:28.040Z,21.98
2023-03-07T06:19:15.102Z,20.40
2023-03-07T06:20:02.107Z,20.90
2023-03-07T06:20:59.847Z,18.85
2023-03-07T06:21:46.977Z,20.90
2023-03-07T06:22:34.901Z,21.25
2023-03-07T06:23:22.026Z,21.23
2023-03-07T06:24:09.240Z,20.37
2023-03-07T06:24:56.523Z,20.45
2023-03-07T06:25:43.581Z,20.90
2023-03-07T06:26:30.848Z,21.67
2023-03-07T06:27:18.089Z,20.45
2023-03-07T06:28:05.096Z,20.30
2023-03-07T06:28:52.144Z,21.17
2023-03-07T06:29:39.012Z,20.62
2023-03-07T06:30:25.984Z,21.00
2023-03-07T06:31:15.546Z,19.98
2023-03-07T06:32:03.374Z,21.15
2023-03-07T06:32:50.621Z,22.35
2023-03-07T06:33:37.690Z,21.48
2023-03-07T06:34:27.508Z,23.33
2023-03-07T06:36:46.349Z,20.70
2023-03-07T06:37:33.793Z,19.98
2023-03-07T06:38:21.502Z,22.23
2023-03-07T06:39:08.618Z,20.50
2023-03-07T06:39:56.089Z,20.00
2023-03-07T06:41:11.802Z,20.10
2023-03-07T06:42:04.034Z,20.80
2023-03-07T06:42:56.453Z,21.02
2023-03-07T06:43:47.196Z,21.23
2023-03-07T06:45:26.836Z,18.92
2023-03-07T06:46:19.314Z,19.27
2023-03-07T06:47:09.469Z,19.42
2023-03-07T06:47:56.668Z,19.90
2023-03-07T06:48:43.935Z,21.75
2023-03-07T06:49:31.053Z,21.92
2023-03-07T06:50:23.772Z,20.35
2023-03-07T06:51:18.413Z,20.42
2023-03-07T06:52:06.050Z,20.58
2023-03-07T06:52:53.617Z,19.10
2023-03-07T06:53:41.855Z,20.50
2023-03-07T06:54:30.336Z,19.65
2023-03-07T06:55:18.204Z,20.12
2023-03-07T06:56:05.745Z,22.33
2023-03-07T06:56:52.974Z,20.62
2023-03-07T06:57:39.990Z,21.60
2023-03-07T06:58:27.197Z,22.42
2023-03-07T06:59:14.451Z,22.35
2023-03-07T07:00:06.134Z,20.40
2023-03-07T07:00:53.332Z,20.65
2023-03-07T07:01:40.506Z,20.23
2023-03-07T07:02:27.843Z,19.98
2023-03-07T07:03:15.897Z,19.65
2023-03-07T07:04:03.961Z,20.65
2023-03-07T07:04:51.188Z,19.33
2023-03-07T07:05:38.330Z,21.00
2023-03-07T07:06:25.413Z,20.08
2023-03-07T07:07:12.431Z,19.10
2023-03-07T07:07:59.535Z,21.00
2023-03-07T07:08:46.620Z,21.05
2023-03-07T07:09:34.844Z,20.58
2023-03-07T07:10:22.028Z,18.52
2023-03-07T07:11:09.143Z,19.37
2023-03-07T07:11:56.200Z,19.92
2023-03-07T07:12:43.287Z,19.92
2023-03-07T07:13:30.684Z,19.55
2023-03-07T07:14:17.875Z,21.20
2023-03-07T07:15:06.011Z,19.67
2023-03-07T07:15:53.422Z,19.08
2023-03-07T07:16:40.642Z,20.23
2023-03-07T07:17:28.139Z,21.12
2023-03-07T07:18:15.341Z,19.20
2023-03-07T07:19:02.534Z,20.80
2023-03-07T07:19:49.817Z,20.80
2023-03-07T07:20:36.922Z,21.00
2023-03-07T07:21:24.002Z,19.30
2023-03-07T07:22:12.380Z,19.25
2023-03-07T07:22:59.569Z,19.60
2023-03-07T07:23:54.389Z,20.67
2023-03-07T07:24:41.532Z,20.73
2023-03-07T07:25:28.768Z,19.37
2023-03-07T07:26:15.882Z,19.75
2023-03-07T07:27:03.141Z,22.40
2023-03-07T07:27:50.695Z,21.35
2023-03-07T07:28:37.941Z,21.60
2023-03-07T07:29:25.228Z,23.60
2023-03-07T07:30:14.324Z,22.08
2023-03-07T07:31:01.424Z,22.20
2023-03-07T07:31:50.109Z,24.10
2023-03-07T07:32:37.762Z,22.17
2023-03-07T07:33:25.133Z,21.75
2023-03-07T07:34:12.555Z,21.50
2023-03-07T07:34:59.567Z,22.35
2023-03-07T07:35:47.373Z,22.70
2023-03-07T07:36:34.786Z,23.30
2023-03-07T07:37:22.018Z,23.87
2023-03-07T07:38:09.109Z,22.52
2023-03-07T07:38:56.209Z,22.67
2023-03-07T07:39:44.372Z,22.77
2023-03-07T07:40:31.851Z,22.90
2023-03-07T07:41:21.429Z,23.80
2023-03-07T07:42:08.554Z,23.48
2023-03-07T07:42:55.931Z,21.50
2023-03-07T07:43:43.121Z,24.12
2023-03-07T07:44:31.502Z,23.98
2023-03-07T07:45:18.584Z,23.67
2023-03-07T07:46:06.082Z,22.00
2023-03-07T07:46:53.514Z,22.83
2023-03-07T07:47:40.655Z,23.20
2023-03-07T07:48:27.787Z,22.98
2023-03-07T07:49:14.932Z,22.83
2023-03-07T07:50:02.069Z,22.50
2023-03-07T07:50:49.237Z,24.08
2023-03-07T07:51:36.529Z,22.83
2023-03-07T07:52:23.756Z,22.15
2023-03-07T07:53:10.947Z,23.10
2023-03-07T07:53:58.278Z,22.67
2023-03-07T07:54:45.381Z,22.58
2023-03-07T07:55:32.620Z,23.35
2023-03-07T07:56:19.685Z,22.52
2023-03-07T07:57:06.911Z,23.98
2023-03-07T07:57:56.072Z,22.15
2023-03-07T07:58:43.442Z,23.98
2023-03-07T07:59:32.072Z,23.17
2023-03-07T08:00:22.711Z,22.95
2023-03-07T08:02:02.104Z,21.27
2023-03-07T08:02:51.996Z,21.30
2023-03-07T08:03:39.144Z,21.40
2023-03-07T08:04:26.354Z,22.25
2023-03-07T08:05:16.993Z,22.77
2023-03-07T08:06:51.038Z,20.50
2023-03-07T08:07:38.098Z,22.48
2023-03-07T08:08:25.220Z,21.58
2023-03-07T08:09:12.459Z,21.40
2023-03-07T08:09:59.472Z,21.80
2023-03-07T08:10:47.391Z,22.17
2023-03-07T08:11:35.034Z,21.15
2023-03-07T08:12:22.112Z,20.83
2023-03-07T08:13:09.657Z,20.50
2023-03-07T08:13:56.997Z,21.95
2023-03-07T08:14:44.164Z,21.62
2023-03-07T08:15:31.337Z,21.55
2023-03-07T08:16:20.904Z,21.48
2023-03-07T08:17:08.047Z,21.00
2023-03-07T08:17:55.260Z,22.15
2023-03-07T08:18:43.387Z,21.37
2023-03-07T08:19:30.892Z,21.65
2023-03-07T08:20:20.661Z,19.70
2023-03-07T08:21:09.041Z,19.98
2023-03-07T08:21:56.146Z,21.58
2023-03-07T08:22:45.303Z,21.67
2023-03-07T08:23:32.414Z,19.25
2023-03-07T08:24:21.793Z,22.10
2023-03-07T08:25:18.536Z,19.65
2023-03-07T08:26:06.918Z,20.88
2023-03-07T08:26:54.060Z,21.42
2023-03-07T08:27:41.123Z,21.08
2023-03-07T08:28:28.239Z,22.50
2023-03-07T08:29:15.299Z,22.08
2023-03-07T08:30:02.480Z,21.02
2023-03-07T08:30:49.742Z,20.62
2023-03-07T08:31:36.862Z,20.70
2023-03-07T08:32:24.011Z,20.77
2023-03-07T08:33:11.259Z,20.23
2023-03-07T08:33:58.333Z,19.87
2023-03-07T08:34:45.555Z,20.48
2023-03-07T08:35:32.966Z,20.23
2023-03-07T08:36:20.619Z,20.60
2023-03-07T08:37:07.735Z,19.77
2023-03-07T08:37:56.218Z,19.67
2023-03-07T08:38:43.859Z,20.95
2023-03-07T08:39:31.099Z,20.80
2023-03-07T08:40:18.301Z,21.48
2023-03-07T08:41:07.013Z,25.15
2023-03-07T08:41:55.553Z,22.30
2023-03-07T08:42:43.515Z,23.33
2023-03-07T08:43:31.553Z,21.98
2023-03-07T08:44:18.621Z,23.98
2023-03-07T08:45:05.971Z,23.85
2023-03-07T08:45:53.249Z,24.75
2023-03-07T08:46:40.523Z,25.92
2023-03-07T08:47:27.877Z,25.65
2023-03-07T08:48:14.934Z,26.20
2023-03-07T08:49:02.255Z,26.05
2023-03-07T08:49:49.391Z,26.20
2023-03-07T08:50:36.952Z,26.73
2023-03-07T08:51:24.124Z,27.62
2023-03-07T08:52:11.284Z,26.33
2023-03-07T08:52:58.424Z,26.30
2023-03-07T08:53:49.330Z,27.40
2023-03-07T08:54:36.407Z,27.08
2023-03-07T08:55:23.587Z,26.33
2023-03-07T08:56:12.531Z,28.52
2023-03-07T08:57:00.424Z,27.20
2023-03-07T08:57:48.096Z,26.70
2023-03-07T08:58:35.285Z,27.20
2023-03-07T08:59:22.620Z,25.48
2023-03-07T09:00:12.606Z,25.48
2023-03-07T09:00:59.694Z,26.83
2023-03-07T09:01:46.841Z,26.27
2023-03-07T09:02:34.137Z,24.60
2023-03-07T09:03:21.274Z,25.67
2023-03-07T09:04:08.556Z,26.17
2023-03-07T09:04:55.761Z,26.17
2023-03-07T09:05:42.966Z,26.00
2023-03-07T09:06:30.185Z,26.27
2023-03-07T09:07:17.535Z,25.08
2023-03-07T09:08:05.249Z,23.40
2023-03-07T09:08:52.630Z,23.85
2023-03-07T09:09:39.850Z,24.12
2023-03-07T09:10:27.664Z,25.42
2023-03-07T09:11:15.848Z,24.70
2023-03-07T09:12:03.096Z,25.27
2023-03-07T09:12:51.567Z,24.40
2023-03-07T09:13:51.012Z,23.60
2023-03-07T09:14:39.416Z,24.95
2023-03-07T09:15:27.431Z,23.80
2023-03-07T09:16:14.776Z,24.83
2023-03-07T09:17:01.981Z,22.55
2023-03-07T09:17:49.166Z,23.23
2023-03-07T09:18:36.591Z,23.02
2023-03-07T09:19:25.339Z,21.67
2023-03-07T09:20:13.226Z,22.27
2023-03-07T09:21:01.648Z,22.08
2023-03-07T09:21:48.768Z,21.58
2023-03-07T09:22:35.904Z,21.05
2023-03-07T09:23:22.971Z,22.17
2023-03-07T09:24:10.070Z,20.50
2023-03-07T09:24:57.215Z,21.37
2023-03-07T09:25:44.785Z,21.15
2023-03-07T09:26:31.967Z,20.10
2023-03-07T09:27:19.311Z,20.92
2023-03-07T09:28:06.611Z,20.25
2023-03-07T09:28:53.769Z,19.20
2023-03-07T09:29:40.843Z,18.73
2023-03-07T09:30:30.063Z,19.58
2023-03-07T09:31:17.523Z,19.23
2023-03-07T09:32:04.893Z,17.98
2023-03-07T09:32:52.578Z,18.83
2023-03-07T09:33:40.530Z,17.10
2023-03-07T09:34:27.709Z,16.40
2023-03-07T09:35:14.774Z,17.75
2023-03-07T09:36:06.205Z,21.45
2023-03-07T09:36:53.530Z,18.23
2023-03-07T09:37:40.850Z,18.92
2023-03-07T09:38:27.925Z,17.73
2023-03-07T09:39:15.134Z,17.23
2023-03-07T09:40:06.665Z,18.08
2023-03-07T09:40:53.783Z,17.40
2023-03-07T09:41:43.847Z,17.95
2023-03-07T09:43:06.017Z,17.25
2023-03-07T09:44:40.374Z,17.27
2023-03-07T09:45:52.745Z,14.48
2023-03-07T09:46:46.237Z,17.58
2023-03-07T09:47:41.505Z,16.65
2023-03-07T09:48:53.039Z,16.30
2023-03-07T09:49:53.523Z,14.98
2023-03-07T09:50:59.368Z,15.55
2023-03-07T09:51:54.128Z,15.55
2023-03-07T09:52:42.327Z,16.12
2023-03-07T09:53:42.543Z,15.25
2023-03-07T09:54:39.628Z,14.90
2023-03-07T09:55:27.434Z,14.23
2023-03-07T09:56:23.922Z,15.48
2023-03-07T09:57:25.143Z,14.15
2023-03-07T09:58:16.381Z,15.20
2023-03-07T09:59:23.943Z,14.73
2023-03-07T10:00:32.011Z,14.45
2023-03-07T10:01:22.316Z,15.25
2023-03-07T10:02:40.481Z,15.82
2023-03-07T10:03:36.028Z,15.02
2023-03-07T10:04:33.691Z,14.93
2023-03-07T10:05:38.394Z,15.65
2023-03-07T10:06:42.513Z,15.30
2023-03-07T10:07:29.978Z,15.45
2023-03-07T10:08:24.799Z,15.57
2023-03-07T10:09:15.691Z,16.37
2023-03-07T10:10:07.614Z,15.23
2023-03-07T10:11:31.906Z,15.10
2023-03-07T10:13:04.847Z,16.23
2023-03-07T10:14:04.049Z,15.75
2023-03-07T10:15:20.430Z,14.90
2023-03-07T10:16:45.047Z,16.55
2023-03-07T10:17:42.880Z,15.88
2023-03-07T10:18:41.786Z,15.48
2023-03-07T10:19:49.587Z,14.55
2023-03-07T10:20:53.317Z,15.15
2023-03-07T10:21:49.333Z,14.82
2023-03-07T10:22:49.395Z,15.63
2023-03-07T10:23:54.721Z,15.38
2023-03-07T10:25:03.357Z,14.60
2023-03-07T10:25:56.538Z,14.65
2023-03-07T10:27:13.262Z,15.95
2023-03-07T10:28:20.005Z,15.23
2023-03-07T10:29:19.525Z,17.30
2023-03-07T10:30:16.229Z,16.90
2023-03-07T10:31:26.574Z,15.80
2023-03-07T10:32:51.034Z,15.90
2023-03-07T10:33:41.198Z,15.15
2023-03-07T10:34:32.390Z,15.23
2023-03-07T10:35:25.601Z,13.75
2023-03-07T10:36:29.264Z,13.52
2023-03-07T10:37:27.710Z,15.07
2023-03-07T10:38:21.037Z,15.70